Winter Beach, Florida
Current Conditions -  °F | °C
As of 9:53 PM on Friday 21 Nov 2014 (Local Time) from KVRB Reporting Station
Overcast Overcast  
Wind Chill: 71°   Ceiling: 4900
Heat Index: 71°   Visibility: 10mi
Dew Point: 58°   Wind: 13mph
Humidity: 63%   Direction: 70°ENE
Pressure: 30.24"   Gusts: NA
Location:  27.72°N, 80.42°W
Report Text: KVRB 220253Z 07011KT 10SM OVC049 22/14 A3024 RMK AO2 SLP239 T02170144 51006
Loading
Personal Weather Stations






























Interactive Weather Map New forecast layout! Learn more

10-Day Weather Forecast

Advertisements
Track Severe Weather on mobile